Berlin, MA

12:09 PM EDT on March 27, 2015 (GMT -0400)
Hanscom | | Change Station
CLOSE
Current Station
Airport
Location: Bedford,
Elevation: 135 ft
Nearby Weather Stations

Elev 135 ft 42.47 °N, 71.29 °W | Updated 13 minutes ago

Overcast
Overcast
38 °F
Feels Like 34 °F
N
6
Wind Variable Wind from NNW

Today
High -- | Low -- °F
--% Chance of Precip.
Yesterday
High -- | Low -- °F
Precip. -- in
6:38 AM 7:06 PM
First Quarter, 53% visible
Pressure 29.75 in
Visibility 10.0 miles
Clouds Overcast 800 ft
Windchill 34 °F
Dew Point 36 °F
Humidity 93%
Rainfall 0.16 in
Snow Depth Not available.
UV 2 out of 12
Pollen 1.70 out of 12
Air Quality Not available.
Flu Activity Not available.
METAR KBED 271556Z 34005KT 10SM OVC008 03/02 A2971 RMK AO2 RAB14E23 SLP075 P0000 T00330022

More Conditions Fewer Conditions

Pressure 29.75 in
Visibility 10.0 miles
Clouds Overcast 800 ft
Windchill 34 °F
Dew Point 36 °F
Humidity 93%
Rainfall 0.16 in
Snow Depth Not available.
UV 2 out of 12
Pollen 1.70 out of 12
Air Quality Not available.
Flu Activity Not available.
METAR KBED 271556Z 34005KT 10SM OVC008 03/02 A2971 RMK AO2 RAB14E23 SLP075 P0000 T00330022

More Conditions Fewer Conditions

10-Day Weather Forecast

Almanac

Astronomy

Mar. 27, 2015 Rise Set
Actual Time
Civil Twilight
Nautical Twilight
Astronomical Twilight
Moon
Length of Visible Light
Length of Day
Tomorrow will be .
, % of the Moon is Illuminated

Today's Extremes

State Highs State Lows

Community

WunderPhotos

Upload Photos

1,808,766 photos uploaded!

WunderBlogs® & News

Nearby

Air Quality

  Air Quality AQ Index Pollutant
Not available.

Snow Depth

Station Depth Elevation

Earthquake Activity

City Distance Mag. Time & Date
Minimum magnitude displayed is 2.5.

Coastal Water Temperatures

Place Temperature

Stations

Nearby Weather Stations

Station Location Temp. Windchill Dew Point Humidity Wind Precip. Elev Updated Type